createdAt,value
2017-06-23T10:22:37.371Z,1010.88
2017-06-23T10:23:48.392Z,1011.05
2017-06-23T10:24:59.388Z,1011.44
2017-06-23T10:26:11.245Z,1012.93
2017-06-23T10:27:22.655Z,1012.49
2017-06-23T10:28:33.654Z,1013.33
2017-06-23T10:29:45.055Z,1012.85
2017-06-23T10:30:56.510Z,1012.37
2017-06-23T10:32:07.739Z,1012.98
2017-06-23T10:33:18.800Z,1012.72
2017-06-23T10:34:30.762Z,1012.18
2017-06-23T10:35:41.997Z,1012.59
2017-06-23T10:36:53.055Z,1012.3
2017-06-23T10:38:04.065Z,1011.96
2017-06-23T10:39:15.073Z,1011.64
2017-06-23T10:40:26.118Z,1011.17
2017-06-23T10:41:37.346Z,1011.05
2017-06-23T10:42:48.414Z,1011.4
2017-06-23T10:43:59.415Z,1011.18
2017-06-23T10:45:10.628Z,1011.14
2017-06-23T10:46:21.631Z,1011.23
2017-06-23T10:47:32.838Z,1011.21
2017-06-23T10:48:43.886Z,1011.49
2017-06-23T10:49:54.923Z,1011.55
2017-06-23T10:51:05.928Z,1011.46
2017-06-23T10:52:17.203Z,1011.34
2017-06-23T10:53:30.546Z,1011.41
2017-06-23T10:54:44.181Z,1011.44
2017-06-23T10:55:56.453Z,1011.54
2017-06-23T10:57:09.489Z,1011.19
2017-06-23T10:58:20.490Z,1011.51
2017-06-23T10:59:31.780Z,1011.32
2017-06-23T11:00:44.323Z,1011.23
2017-06-23T11:01:55.544Z,1011.51
2017-06-23T11:03:06.572Z,1011.28
2017-06-23T11:04:17.788Z,1011.17
2017-06-23T11:05:29.235Z,1011.1
2017-06-23T11:06:40.233Z,1011.45
2017-06-23T11:07:51.239Z,1011.88
2017-06-23T11:09:02.238Z,1011.58
2017-06-23T11:10:13.383Z,1011.3
2017-06-23T11:11:25.571Z,1011.87
2017-06-23T11:12:37.033Z,1011.22
2017-06-23T11:13:48.417Z,1011.64
2017-06-23T11:14:59.794Z,1011.03
2017-06-23T11:16:11.304Z,1010.89
2017-06-23T11:17:22.381Z,1010.9
2017-06-23T11:18:34.222Z,1010.73
2017-06-23T11:19:45.512Z,1010.76
2017-06-23T11:20:56.885Z,1010.76
2017-06-23T11:22:09.574Z,1010.79
2017-06-23T11:23:24.117Z,1010.89
2017-06-23T11:24:35.890Z,1010.93
2017-06-23T11:25:47.356Z,1010.92
2017-06-23T11:26:58.361Z,1010.85
2017-06-23T11:28:09.427Z,1010.71
2017-06-23T11:29:20.635Z,1010.55
2017-06-23T11:30:31.631Z,1010.59
2017-06-23T11:31:42.825Z,1010.59
2017-06-23T11:32:54.027Z,1010.61
2017-06-23T11:34:05.290Z,1010.68
2017-06-23T11:35:16.381Z,1010.72
2017-06-23T11:36:27.386Z,1010.97
2017-06-23T11:37:38.386Z,1011.06
2017-06-23T11:38:49.387Z,1011.06
2017-06-23T11:40:00.443Z,1011.03
2017-06-23T11:41:11.436Z,1010.93
2017-06-23T11:42:25.037Z,1010.84
2017-06-23T11:43:36.943Z,1010.78
2017-06-23T11:44:48.153Z,1010.76
2017-06-23T11:45:59.211Z,1010.74
2017-06-23T11:47:10.451Z,1010.74
2017-06-23T11:48:22.065Z,1010.81
2017-06-23T11:49:33.567Z,1010.96
2017-06-23T11:50:44.557Z,1011.04
2017-06-23T11:51:56.149Z,1011.16
2017-06-23T11:53:09.239Z,1011.24
2017-06-23T11:54:21.028Z,1011.18
2017-06-23T11:55:32.057Z,1011.11
2017-06-23T11:56:43.068Z,1011.02
2017-06-23T11:57:55.467Z,1010.97
2017-06-23T11:59:06.467Z,1010.85
2017-06-23T12:00:17.547Z,1010.93
2017-06-23T12:01:28.546Z,1010.81
2017-06-23T12:02:39.552Z,1010.77
2017-06-23T12:03:50.850Z,1010.75
2017-06-23T12:05:01.897Z,1010.79
2017-06-23T12:06:13.128Z,1010.78
2017-06-23T12:07:25.483Z,1010.81
2017-06-23T12:08:36.485Z,1010.82
2017-06-23T12:09:47.592Z,1010.76
2017-06-23T12:10:59.105Z,1010.69
2017-06-23T12:12:12.467Z,1010.78
2017-06-23T12:13:24.412Z,1010.65
2017-06-23T12:14:35.813Z,1010.64
2017-06-23T12:15:46.868Z,1010.76
2017-06-23T12:16:58.143Z,1010.74
2017-06-23T12:18:09.143Z,1010.78
2017-06-23T12:19:20.164Z,1010.78
2017-06-23T12:20:32.118Z,1010.78
2017-06-23T12:21:47.204Z,1010.75
2017-06-23T12:23:02.033Z,1010.89
2017-06-23T12:24:13.304Z,1010.8
2017-06-23T12:25:24.785Z,1010.76
2017-06-23T12:26:40.184Z,1010.84
2017-06-23T12:27:51.522Z,1010.81
2017-06-23T12:29:02.745Z,1010.78
2017-06-23T12:30:13.740Z,1010.81
2017-06-23T12:31:24.748Z,1010.75
2017-06-23T12:32:36.185Z,1010.78
2017-06-23T12:33:47.332Z,1010.77
2017-06-23T12:34:58.529Z,1010.77
2017-06-23T12:36:09.585Z,1010.74
2017-06-23T12:37:20.608Z,1010.79
2017-06-23T12:38:31.971Z,1010.82
2017-06-23T12:39:42.973Z,1010.77
2017-06-23T12:40:53.964Z,1010.78
2017-06-23T12:42:05.172Z,1010.73
2017-06-23T12:43:16.414Z,1010.73
2017-06-23T12:44:27.459Z,1010.75
2017-06-23T12:45:38.472Z,1010.83
2017-06-23T12:46:49.463Z,1010.88
2017-06-23T12:48:00.464Z,1010.88
2017-06-23T12:49:14.217Z,1010.75
2017-06-23T12:50:25.264Z,1010.78
2017-06-23T12:51:36.263Z,1010.74
2017-06-23T12:52:47.309Z,1010.79
2017-06-23T12:53:58.303Z,1010.85
2017-06-23T12:55:09.357Z,1010.85
2017-06-23T12:56:20.348Z,1010.82
2017-06-23T12:57:31.363Z,1010.83
2017-06-23T12:58:42.580Z,1010.91
2017-06-23T12:59:55.301Z,1010.9
2017-06-23T13:01:09.704Z,1010.82
2017-06-23T13:02:20.739Z,1010.81
2017-06-23T13:03:31.808Z,1010.9
2017-06-23T13:04:43.695Z,1010.84
2017-06-23T13:05:55.042Z,1010.86
2017-06-23T13:07:06.191Z,1010.85
2017-06-23T13:08:21.066Z,1010.86
2017-06-23T13:09:34.806Z,1010.83
2017-06-23T13:10:46.250Z,1010.81
2017-06-23T13:11:57.368Z,1010.76
2017-06-23T13:13:11.786Z,1010.75
2017-06-23T13:14:24.352Z,1010.75
2017-06-23T13:15:39.633Z,1010.71
2017-06-23T13:16:50.908Z,1010.7
2017-06-23T13:18:03.623Z,1010.68
2017-06-23T13:19:14.828Z,1010.67
2017-06-23T13:20:25.827Z,1010.6
2017-06-23T13:21:36.831Z,1010.63
2017-06-23T13:22:47.859Z,1010.72
2017-06-23T13:23:59.137Z,1010.62
2017-06-23T13:25:10.341Z,1010.62
2017-06-23T13:26:21.533Z,1010.61
2017-06-23T13:27:32.547Z,1010.61
2017-06-23T13:28:43.545Z,1010.6
2017-06-23T13:29:54.610Z,1010.57
2017-06-23T13:31:06.361Z,1010.64
2017-06-23T13:32:19.319Z,1010.68
2017-06-23T13:33:30.321Z,1010.68
2017-06-23T13:34:42.015Z,1010.67
2017-06-23T13:35:58.062Z,1010.6
2017-06-23T13:37:09.088Z,1010.64
2017-06-23T13:38:20.090Z,1010.66
2017-06-23T13:39:31.141Z,1010.6
2017-06-23T13:40:42.279Z,1010.59
2017-06-23T13:41:56.902Z,1010.49
2017-06-23T13:43:11.000Z,1010.57
2017-06-23T13:44:25.564Z,1010.51
2017-06-23T13:45:39.506Z,1010.53
2017-06-23T13:46:50.865Z,1010.56
2017-06-23T13:48:03.779Z,1010.5
2017-06-23T13:49:15.913Z,1010.5
2017-06-23T13:50:27.026Z,1010.54
2017-06-23T13:51:38.082Z,1010.49
2017-06-23T13:52:49.107Z,1010.48
2017-06-23T13:54:00.107Z,1010.49
2017-06-23T13:55:11.119Z,1010.56
2017-06-23T13:56:22.146Z,1010.48
2017-06-23T13:57:33.546Z,1010.48
2017-06-23T13:58:47.438Z,1010.51
2017-06-23T13:59:58.515Z,1010.56
2017-06-23T14:01:09.517Z,1010.56
2017-06-23T14:02:20.559Z,1010.5
2017-06-23T14:03:31.718Z,1010.47
2017-06-23T14:04:43.514Z,1010.41
2017-06-23T14:05:54.918Z,1010.4
2017-06-23T14:07:06.392Z,1010.39
2017-06-23T14:08:17.417Z,1010.36
2017-06-23T14:09:28.671Z,1010.31
2017-06-23T14:10:39.951Z,1010.32
2017-06-23T14:11:51.149Z,1010.32
2017-06-23T14:13:02.297Z,1010.33
2017-06-23T14:14:15.122Z,1010.36
2017-06-23T14:15:27.447Z,1010.37
2017-06-23T14:16:38.673Z,1010.33
2017-06-23T14:17:49.668Z,1010.4
2017-06-23T14:19:00.882Z,1010.37
2017-06-23T14:20:11.946Z,1010.3
2017-06-23T14:21:23.291Z,1010.32
2017-06-23T14:22:35.174Z,1010.43
2017-06-23T14:23:46.786Z,1010.46
2017-06-23T14:24:58.259Z,1010.37
2017-06-23T14:26:09.249Z,1010.4
2017-06-23T14:27:20.315Z,1010.37
2017-06-23T14:28:31.318Z,1010.33
2017-06-23T14:29:42.535Z,1010.4
2017-06-23T14:30:53.533Z,1010.33
2017-06-23T14:32:04.703Z,1010.32
2017-06-23T14:33:19.940Z,1010.37
2017-06-23T14:34:30.947Z,1010.32
2017-06-23T14:35:41.948Z,1010.31
2017-06-23T14:36:52.946Z,1010.34
2017-06-23T14:38:03.977Z,1010.32
2017-06-23T14:39:15.154Z,1010.34
2017-06-23T14:40:26.156Z,1010.29
2017-06-23T14:41:37.363Z,1010.36
2017-06-23T14:42:48.565Z,1010.33
2017-06-23T14:43:59.556Z,1010.3
2017-06-23T14:45:11.875Z,1010.33
2017-06-23T14:46:26.124Z,1010.38
2017-06-23T14:47:37.133Z,1010.36
2017-06-23T14:48:48.333Z,1010.3
2017-06-23T14:49:59.330Z,1010.33
2017-06-23T14:51:10.379Z,1010.29
2017-06-23T14:52:21.379Z,1010.29
2017-06-23T14:53:32.378Z,1010.24
2017-06-23T14:54:43.373Z,1010.13
2017-06-23T14:55:54.573Z,1010.16
2017-06-23T14:57:06.118Z,1010.14
2017-06-23T14:58:17.432Z,1010.09
2017-06-23T14:59:28.425Z,1010.23
2017-06-23T15:00:39.420Z,1010.14
2017-06-23T15:01:51.523Z,1010.18
2017-06-23T15:03:02.774Z,1010.16
2017-06-23T15:04:14.645Z,1010.2
2017-06-23T15:05:27.977Z,1010.15
2017-06-23T15:06:38.979Z,1010.11
2017-06-23T15:07:49.978Z,1010.05
2017-06-23T15:09:01.024Z,1010.16
2017-06-23T15:10:12.024Z,1010.09
2017-06-23T15:11:23.023Z,1010.09
2017-06-23T15:12:34.020Z,1010.07
2017-06-23T15:13:45.020Z,1010.02
2017-06-23T15:14:56.086Z,1010
2017-06-23T15:16:07.084Z,1010.02
2017-06-23T15:17:18.249Z,1009.99
2017-06-23T15:18:29.248Z,1010.07
2017-06-23T15:19:40.324Z,1010.1
2017-06-23T15:20:51.399Z,1010.13
2017-06-23T15:22:02.406Z,1010.11
2017-06-23T15:23:13.403Z,1010.1
2017-06-23T15:24:24.397Z,1010.17
2017-06-23T15:25:35.450Z,1010.08
2017-06-23T15:26:46.674Z,1010.05
2017-06-23T15:27:57.665Z,1010.03
2017-06-23T15:29:08.662Z,1010.11
2017-06-23T15:30:19.662Z,1010.07
2017-06-23T15:31:30.715Z,1010.11
2017-06-23T15:32:42.537Z,1010.19
2017-06-23T15:33:53.938Z,1010.1
2017-06-23T15:35:04.942Z,1010.05
2017-06-23T15:36:15.938Z,1010.02
2017-06-23T15:37:26.989Z,1010.03
2017-06-23T15:38:37.987Z,1009.99
2017-06-23T15:39:49.014Z,1010.07
2017-06-23T15:41:00.036Z,1010.08
2017-06-23T15:42:11.040Z,1010.08
2017-06-23T15:43:22.101Z,1010.06
2017-06-23T15:44:33.096Z,1010.03
2017-06-23T15:45:44.083Z,1010.04
2017-06-23T15:46:55.080Z,1009.97
2017-06-23T15:48:06.074Z,1010.11
2017-06-23T15:49:17.326Z,1010.08
2017-06-23T15:50:28.321Z,1010.11
2017-06-23T15:51:39.320Z,1010.09
2017-06-23T15:52:50.326Z,1010.13
2017-06-23T15:54:03.364Z,1010.21
2017-06-23T15:55:14.409Z,1010.19
2017-06-23T15:56:25.435Z,1010.22
2017-06-23T15:57:39.379Z,1010.14
2017-06-23T15:58:50.378Z,1010.16
2017-06-23T16:00:01.692Z,1010.21
2017-06-23T16:01:13.082Z,1010.22
2017-06-23T16:02:24.071Z,1010.19
2017-06-23T16:03:35.265Z,1010.17
2017-06-23T16:04:49.135Z,1010.05
2017-06-23T16:06:00.139Z,1010.03
2017-06-23T16:07:11.180Z,1010.05
2017-06-23T16:08:22.168Z,1009.94
2017-06-23T16:09:33.168Z,1009.96
2017-06-23T16:10:44.160Z,1009.98
2017-06-23T16:11:55.152Z,1010.02
2017-06-23T16:13:06.194Z,1009.91
2017-06-23T16:14:17.414Z,1009.97
2017-06-23T16:15:28.416Z,1009.96
2017-06-23T16:16:39.449Z,1010.01
2017-06-23T16:17:50.668Z,1009.93
2017-06-23T16:19:01.911Z,1009.92
2017-06-23T16:20:13.305Z,1009.89
2017-06-23T16:21:24.630Z,1009.92
2017-06-23T16:22:37.571Z,1009.91
2017-06-23T16:23:48.576Z,1009.88
2017-06-23T16:24:59.621Z,1009.87
2017-06-23T16:26:10.622Z,1009.85
2017-06-23T16:27:21.617Z,1009.84
2017-06-23T16:28:32.620Z,1009.86
2017-06-23T16:29:43.620Z,1009.84
2017-06-23T16:30:54.643Z,1009.93
2017-06-23T16:32:05.643Z,1009.86
2017-06-23T16:33:17.515Z,1009.88
2017-06-23T16:34:28.517Z,1009.97
2017-06-23T16:35:39.564Z,1009.95
2017-06-23T16:36:50.568Z,1009.91
2017-06-23T16:38:01.567Z,1009.9
2017-06-23T16:39:12.560Z,1009.93
2017-06-23T16:40:23.759Z,1009.88
2017-06-23T16:41:34.797Z,1009.91
2017-06-23T16:42:45.816Z,1009.93
2017-06-23T16:43:57.327Z,1009.91
2017-06-23T16:45:09.832Z,1009.86
2017-06-23T16:46:20.835Z,1009.86
2017-06-23T16:47:32.077Z,1009.89
2017-06-23T16:48:43.273Z,1009.89
2017-06-23T16:49:54.268Z,1009.87
2017-06-23T16:51:05.681Z,1009.91
2017-06-23T16:52:16.932Z,1009.87
2017-06-23T16:53:27.977Z,1009.89
2017-06-23T16:54:39.182Z,1009.92
2017-06-23T16:55:50.789Z,1009.94
2017-06-23T16:57:04.278Z,1009.95
2017-06-23T16:58:15.284Z,1010.04
2017-06-23T16:59:27.448Z,1009.99
2017-06-23T17:00:39.092Z,1010.05
2017-06-23T17:01:50.677Z,1010.08
2017-06-23T17:03:05.706Z,1010.07
2017-06-23T17:04:18.797Z,1010.03
2017-06-23T17:05:29.848Z,1010.07
2017-06-23T17:06:42.300Z,1009.99
2017-06-23T17:07:53.384Z,1010.05
2017-06-23T17:09:04.378Z,1010
2017-06-23T17:10:15.566Z,1010.01
2017-06-23T17:11:27.082Z,1009.97
2017-06-23T17:12:38.363Z,1009.96
2017-06-23T17:13:49.739Z,1009.98
2017-06-23T17:15:01.324Z,1009.99
2017-06-23T17:16:12.553Z,1010.01
2017-06-23T17:17:24.117Z,1010.06
2017-06-23T17:18:35.561Z,1010.01
2017-06-23T17:19:46.932Z,1010.05
2017-06-23T17:20:58.641Z,1010.06
2017-06-23T17:22:10.047Z,1010.07
2017-06-23T17:23:21.729Z,1010.08
2017-06-23T17:24:33.408Z,1010.1
2017-06-23T17:25:44.992Z,1010.07
2017-06-23T17:26:56.576Z,1010.04
2017-06-23T17:28:08.115Z,1010.03
2017-06-23T17:29:19.404Z,1010.03
2017-06-23T17:30:30.998Z,1010.04
2017-06-23T17:31:42.544Z,1010
2017-06-23T17:32:54.048Z,1010.02
2017-06-23T17:34:05.054Z,1009.99
2017-06-23T17:35:16.094Z,1010.03
2017-06-23T17:36:27.089Z,1010.02
2017-06-23T17:37:38.098Z,1010.07
2017-06-23T17:38:49.164Z,1010.08
2017-06-23T17:40:00.184Z,1010.04
2017-06-23T17:41:11.210Z,1010.04
2017-06-23T17:42:22.603Z,1010.05
2017-06-23T17:43:34.472Z,1010.04
2017-06-23T17:44:45.588Z,1010.1
2017-06-23T17:45:56.836Z,1010.13
2017-06-23T17:47:07.841Z,1010.08
2017-06-23T17:48:18.852Z,1010.09
2017-06-23T17:49:29.908Z,1010.06
2017-06-23T17:50:40.975Z,1010.02
2017-06-23T17:51:52.403Z,1010.1
2017-06-23T17:53:03.402Z,1010.09
2017-06-23T17:54:14.436Z,1010.1
2017-06-23T17:55:25.496Z,1010.09
2017-06-23T17:56:36.996Z,1010.12
2017-06-23T17:57:49.276Z,1010.11
2017-06-23T17:59:00.284Z,1010.1
2017-06-23T18:00:11.295Z,1010.07
2017-06-23T18:01:24.930Z,1010.07
2017-06-23T18:02:35.950Z,1010.09
2017-06-23T18:03:46.955Z,1010.12
2017-06-23T18:04:57.959Z,1010.16
2017-06-23T18:06:08.963Z,1010.19
2017-06-23T18:07:20.042Z,1010.24
2017-06-23T18:08:31.052Z,1010.16
2017-06-23T18:09:42.070Z,1010.15
2017-06-23T18:10:53.085Z,1010.14
2017-06-23T18:12:04.119Z,1010.15
2017-06-23T18:13:15.431Z,1010.12
2017-06-23T18:14:26.429Z,1010.11
2017-06-23T18:15:37.436Z,1010.17
2017-06-23T18:16:48.647Z,1010.2
2017-06-23T18:17:59.665Z,1010.2
2017-06-23T18:19:10.726Z,1010.21
2017-06-23T18:20:21.744Z,1010.22
2017-06-23T18:21:32.792Z,1010.23
2017-06-23T18:22:44.008Z,1010.27
2017-06-23T18:23:55.019Z,1010.24
2017-06-23T18:25:06.281Z,1010.27
2017-06-23T18:26:17.303Z,1010.29
2017-06-23T18:27:28.666Z,1010.25
2017-06-23T18:28:39.666Z,1010.29
2017-06-23T18:29:50.676Z,1010.26
2017-06-23T18:31:01.723Z,1010.26
2017-06-23T18:32:12.732Z,1010.3
2017-06-23T18:33:23.738Z,1010.3
2017-06-23T18:34:34.752Z,1010.32
2017-06-23T18:35:45.754Z,1010.33
2017-06-23T18:36:56.811Z,1010.35
2017-06-23T18:38:07.891Z,1010.36
2017-06-23T18:39:18.892Z,1010.37
2017-06-23T18:40:29.903Z,1010.39
2017-06-23T18:41:40.922Z,1010.39
2017-06-23T18:42:51.984Z,1010.4
2017-06-23T18:44:02.994Z,1010.36
2017-06-23T18:45:14.194Z,1010.38
2017-06-23T18:46:25.400Z,1010.38
2017-06-23T18:47:36.607Z,1010.39
2017-06-23T18:48:47.877Z,1010.43
2017-06-23T18:49:58.891Z,1010.4
2017-06-23T18:51:09.900Z,1010.37
2017-06-23T18:52:20.939Z,1010.35
2017-06-23T18:53:32.032Z,1010.35
2017-06-23T18:54:43.097Z,1010.35
2017-06-23T18:55:54.099Z,1010.34
2017-06-23T18:57:06.573Z,1010.37
2017-06-23T18:58:17.598Z,1010.38
2017-06-23T18:59:28.634Z,1010.4
2017-06-23T19:00:39.687Z,1010.37
2017-06-23T19:01:50.698Z,1010.39
2017-06-23T19:03:01.908Z,1010.39
2017-06-23T19:04:13.864Z,1010.43
2017-06-23T19:05:24.922Z,1010.42
2017-06-23T19:06:35.945Z,1010.43
2017-06-23T19:07:47.169Z,1010.47
2017-06-23T19:08:58.484Z,1010.46
2017-06-23T19:10:10.131Z,1010.46
2017-06-23T19:11:21.445Z,1010.46
2017-06-23T19:12:34.233Z,1010.45
2017-06-23T19:13:45.244Z,1010.46
2017-06-23T19:14:56.821Z,1010.49
2017-06-23T19:16:12.383Z,1010.45
2017-06-23T19:17:23.428Z,1010.42
2017-06-23T19:18:34.547Z,1010.42
2017-06-23T19:19:49.172Z,1010.44
2017-06-23T19:21:00.586Z,1010.44
2017-06-23T19:22:16.930Z,1010.47
2017-06-23T19:23:56.833Z,1010.46
2017-06-23T19:25:12.332Z,1010.48
2017-06-23T19:26:50.041Z,1010.47
2017-06-23T19:28:33.487Z,1010.48
2017-06-23T19:30:07.265Z,1010.5
2017-06-23T19:31:21.473Z,1010.47
2017-06-23T19:32:32.675Z,1010.49
2017-06-23T19:33:45.025Z,1010.51
2017-06-23T19:34:56.258Z,1010.48
2017-06-23T19:36:07.453Z,1010.5
2017-06-23T19:37:18.443Z,1010.51
2017-06-23T19:38:29.481Z,1010.46
2017-06-23T19:39:40.479Z,1010.47
2017-06-23T19:40:51.464Z,1010.47
2017-06-23T19:42:02.624Z,1010.47
2017-06-23T19:43:14.707Z,1010.5
2017-06-23T19:44:26.946Z,1010.51
2017-06-23T19:45:37.936Z,1010.55
2017-06-23T19:46:51.733Z,1010.52
2017-06-23T19:48:03.240Z,1010.51
2017-06-23T19:49:14.242Z,1010.57
2017-06-23T19:50:25.437Z,1010.51
2017-06-23T19:51:41.728Z,1010.6
2017-06-23T19:53:20.467Z,1010.62
2017-06-23T19:54:37.861Z,1010.62
2017-06-23T19:56:15.913Z,1010.63
2017-06-23T19:57:54.927Z,1010.62
2017-06-23T19:59:09.915Z,1010.69
2017-06-23T20:00:21.155Z,1010.66
2017-06-23T20:01:32.467Z,1010.66
2017-06-23T20:02:53.567Z,1010.64
2017-06-23T20:04:13.162Z,1010.75
2017-06-23T20:05:51.530Z,1010.78
2017-06-23T20:07:18.599Z,1010.82
2017-06-23T20:08:47.489Z,1010.85
2017-06-23T20:10:11.330Z,1010.83
2017-06-23T20:11:47.672Z,1010.86
2017-06-23T20:13:21.176Z,1010.89
2017-06-23T20:14:52.280Z,1010.91
2017-06-23T20:16:03.478Z,1010.87
2017-06-23T20:17:14.519Z,1010.93
2017-06-23T20:18:25.512Z,1010.9
2017-06-23T20:19:36.710Z,1010.93
2017-06-23T20:20:47.721Z,1010.97
2017-06-23T20:21:58.721Z,1010.95
2017-06-23T20:23:09.987Z,1010.97
2017-06-23T20:24:20.969Z,1010.94
2017-06-23T20:25:32.170Z,1010.97
2017-06-23T20:26:43.355Z,1010.97
2017-06-23T20:27:54.344Z,1010.96
2017-06-23T20:29:05.792Z,1011
2017-06-23T20:30:16.796Z,1010.97
2017-06-23T20:31:27.784Z,1010.95
2017-06-23T20:32:39.244Z,1010.96
2017-06-23T20:33:54.232Z,1010.96
2017-06-23T20:35:05.278Z,1010.97
2017-06-23T20:36:16.704Z,1010.98
2017-06-23T20:37:28.700Z,1011
2017-06-23T20:38:39.722Z,1011.01
2017-06-23T20:39:50.712Z,1010.98
2017-06-23T20:41:01.951Z,1011
2017-06-23T20:42:12.941Z,1010.98
2017-06-23T20:43:23.938Z,1011.01
2017-06-23T20:44:35.170Z,1011
2017-06-23T20:45:46.158Z,1011
2017-06-23T20:46:57.211Z,1011.06
2017-06-23T20:48:08.398Z,1011.05
2017-06-23T20:49:19.389Z,1011.07
2017-06-23T20:50:30.389Z,1011.06
2017-06-23T20:51:41.390Z,1011.06
2017-06-23T20:52:54.941Z,1011.03
2017-06-23T20:54:08.121Z,1011.03
2017-06-23T20:55:19.116Z,1011.06
2017-06-23T20:56:30.104Z,1011.03
2017-06-23T20:57:41.091Z,1011.02
2017-06-23T20:58:52.137Z,1011.02
2017-06-23T21:00:03.143Z,1010.97
2017-06-23T21:01:14.136Z,1010.99
2017-06-23T21:02:25.125Z,1011.03
2017-06-23T21:03:36.109Z,1011.05
2017-06-23T21:04:47.353Z,1011.08
2017-06-23T21:05:58.344Z,1011.12
2017-06-23T21:07:09.341Z,1011.08
2017-06-23T21:08:20.530Z,1011.11
2017-06-23T21:09:31.554Z,1011.12
2017-06-23T21:10:42.541Z,1011.16
2017-06-23T21:11:53.536Z,1011.11
2017-06-23T21:13:04.727Z,1011.15
2017-06-23T21:14:15.919Z,1011.15
2017-06-23T21:15:26.973Z,1011.14
2017-06-23T21:16:38.094Z,1011.15
2017-06-23T21:17:49.084Z,1011.18
2017-06-23T21:19:00.078Z,1011.15
2017-06-23T21:20:11.065Z,1011.15
2017-06-23T21:21:22.115Z,1011.13
2017-06-23T21:22:33.107Z,1011.15
2017-06-23T21:23:44.090Z,1011.16
2017-06-23T21:24:55.082Z,1011.14
2017-06-23T21:26:06.095Z,1011.14
2017-06-23T21:27:17.135Z,1011.12
2017-06-23T21:28:28.142Z,1011.17
2017-06-23T21:29:39.139Z,1011.17
2017-06-23T21:30:50.144Z,1011.14
2017-06-23T21:32:01.133Z,1011.16
2017-06-23T21:33:15.360Z,1011.18
2017-06-23T21:34:26.346Z,1011.18
2017-06-23T21:35:37.337Z,1011.2
2017-06-23T21:36:48.324Z,1011.2
2017-06-23T21:37:59.523Z,1011.18
2017-06-23T21:39:10.561Z,1011.19
2017-06-23T21:40:21.548Z,1011.18
2017-06-23T21:41:32.543Z,1011.16
2017-06-23T21:42:43.533Z,1011.18
2017-06-23T21:43:54.532Z,1011.17
2017-06-23T21:45:08.825Z,1011.15
2017-06-23T21:46:20.010Z,1011.13
2017-06-23T21:47:30.988Z,1011.16
2017-06-23T21:48:41.977Z,1011.18
2017-06-23T21:49:52.964Z,1011.15
2017-06-23T21:51:04.004Z,1011.19
2017-06-23T21:52:15.007Z,1011.17
2017-06-23T21:53:25.995Z,1011.18
2017-06-23T21:54:36.985Z,1011.16
2017-06-23T21:55:47.989Z,1011.13
2017-06-23T21:56:59.245Z,1011.13
2017-06-23T21:58:10.234Z,1011.08
2017-06-23T21:59:21.216Z,1011.08
2017-06-23T22:00:32.200Z,1011.1
2017-06-23T22:01:43.592Z,1011.15
2017-06-23T22:02:54.635Z,1011.12
2017-06-23T22:04:06.287Z,1011.11
2017-06-23T22:05:17.278Z,1011.09
2017-06-23T22:06:28.262Z,1011.1
2017-06-23T22:07:39.533Z,1011.06
2017-06-23T22:08:52.400Z,1011.07
2017-06-23T22:10:03.384Z,1011.06
2017-06-23T22:11:14.396Z,1011.06
2017-06-23T22:12:25.388Z,1011.09
2017-06-23T22:13:36.376Z,1011.1
2017-06-23T22:14:47.418Z,1011.11
2017-06-23T22:15:58.401Z,1011.12
2017-06-23T22:17:09.380Z,1011.12
2017-06-23T22:18:20.367Z,1011.17
2017-06-23T22:19:31.354Z,1011.19
2017-06-23T22:20:42.541Z,1011.17
2017-06-23T22:21:53.735Z,1011.21
2017-06-23T22:23:04.734Z,1011.16
2017-06-23T22:24:15.731Z,1011.19
2017-06-23T22:25:26.974Z,1011.22
2017-06-23T22:26:37.955Z,1011.19
2017-06-23T22:27:48.953Z,1011.16
2017-06-23T22:28:59.937Z,1011.17
2017-06-23T22:30:10.928Z,1011.17
2017-06-23T22:31:22.172Z,1011.16
2017-06-23T22:32:33.359Z,1011.14
2017-06-23T22:33:44.356Z,1011.11
2017-06-23T22:34:55.345Z,1011.13
2017-06-23T22:36:06.332Z,1011.07
2017-06-23T22:37:17.771Z,1011.1
2017-06-23T22:38:28.761Z,1011.09
2017-06-23T22:39:39.751Z,1011.11
2017-06-23T22:40:50.760Z,1011.09
2017-06-23T22:42:01.752Z,1011.14
2017-06-23T22:43:12.789Z,1011.12
2017-06-23T22:44:23.985Z,1011.14
2017-06-23T22:45:34.977Z,1011.12
2017-06-23T22:46:45.967Z,1011.14
2017-06-23T22:47:56.962Z,1011.12
2017-06-23T22:49:08.003Z,1011.16
2017-06-23T22:50:18.993Z,1011.12
2017-06-23T22:51:29.988Z,1011.17
2017-06-23T22:52:41.173Z,1011.11
2017-06-23T22:53:52.360Z,1011.11
2017-06-23T22:55:03.394Z,1011.11
2017-06-23T22:56:14.389Z,1011.07
2017-06-23T22:57:25.407Z,1011.11
2017-06-23T22:58:36.430Z,1011.12
2017-06-23T22:59:47.633Z,1011.09
2017-06-23T23:00:58.681Z,1011.08
2017-06-23T23:02:09.662Z,1011.07
2017-06-23T23:03:20.655Z,1011.06
2017-06-23T23:04:31.851Z,1011.07
2017-06-23T23:05:42.847Z,1011.12
2017-06-23T23:06:54.091Z,1011.13
2017-06-23T23:08:05.082Z,1011.11
2017-06-23T23:09:16.069Z,1011.08
2017-06-23T23:10:27.255Z,1011.12
2017-06-23T23:11:38.247Z,1011.09
2017-06-23T23:12:49.291Z,1011.12
2017-06-23T23:14:00.285Z,1011.08
2017-06-23T23:15:11.266Z,1011.09
2017-06-23T23:16:22.260Z,1011.04
2017-06-23T23:17:33.250Z,1011.08
2017-06-23T23:18:44.294Z,1011.06
2017-06-23T23:19:55.273Z,1011.03
2017-06-23T23:21:06.465Z,1011.02
2017-06-23T23:22:17.492Z,1011.04
2017-06-23T23:23:28.685Z,1011.04
2017-06-23T23:24:39.718Z,1011.03
2017-06-23T23:25:50.707Z,1011.02
2017-06-23T23:27:01.694Z,1011.02
2017-06-23T23:28:12.688Z,1011
2017-06-23T23:29:23.681Z,1010.96
2017-06-23T23:30:34.672Z,1010.99
2017-06-23T23:31:45.864Z,1010.99
2017-06-23T23:32:57.059Z,1010.94
2017-06-23T23:34:08.251Z,1010.96
2017-06-23T23:35:19.293Z,1010.96
2017-06-23T23:36:30.281Z,1010.95
2017-06-23T23:37:41.267Z,1010.96
2017-06-23T23:38:52.250Z,1010.92
2017-06-23T23:40:03.237Z,1010.92
2017-06-23T23:41:14.477Z,1010.93
2017-06-23T23:42:25.470Z,1010.93
2017-06-23T23:43:36.458Z,1010.91
2017-06-23T23:44:47.646Z,1010.91
2017-06-23T23:45:58.649Z,1010.92
2017-06-23T23:47:09.690Z,1010.91
2017-06-23T23:48:20.880Z,1010.89
2017-06-23T23:49:31.868Z,1010.88
2017-06-23T23:50:43.061Z,1010.89
2017-06-23T23:51:54.051Z,1010.92
2017-06-23T23:53:05.291Z,1010.85
2017-06-23T23:54:16.287Z,1010.83
2017-06-23T23:55:27.279Z,1010.85
2017-06-23T23:56:38.278Z,1010.8
2017-06-23T23:57:49.469Z,1010.84
2017-06-23T23:59:00.513Z,1010.83
